createdAt,value
2022-11-21T00:05:34.100Z,4126.4
2022-11-21T00:11:17.949Z,4128.9
2022-11-21T00:17:06.124Z,4127.2
2022-11-21T00:22:41.187Z,4127.5
2022-11-21T00:28:25.663Z,4125.7
2022-11-21T00:34:00.719Z,4124.7
2022-11-21T00:39:56.987Z,4125.4
2022-11-21T00:45:33.672Z,4126.9
2022-11-21T00:51:11.284Z,4126.5
2022-11-21T00:57:47.139Z,4128
2022-11-21T01:03:31.636Z,4127.5
2022-11-21T01:09:46.462Z,4124.7
2022-11-21T01:15:22.029Z,4124.2
2022-11-21T01:21:03.522Z,4123.7
2022-11-21T01:26:38.536Z,4124.9
2022-11-21T01:32:19.094Z,4122.7
2022-11-21T01:38:00.131Z,4120.7
2022-11-21T01:43:36.405Z,4122
2022-11-21T01:49:34.408Z,4116.3
2022-11-21T01:55:27.973Z,4121
2022-11-21T02:01:04.275Z,4123
2022-11-21T02:06:41.912Z,4121.2
2022-11-21T02:12:16.801Z,4120
2022-11-21T02:18:02.921Z,4120.5
2022-11-21T02:23:43.726Z,4121.5
2022-11-21T02:29:21.707Z,4119.5
2022-11-21T02:35:04.812Z,4118
2022-11-21T02:40:40.280Z,4122
2022-11-21T02:46:36.958Z,4116.5
2022-11-21T02:52:13.307Z,4117.1
2022-11-21T02:57:50.391Z,4119
2022-11-21T03:03:26.962Z,4117.7
2022-11-21T03:09:43.689Z,4116.5
2022-11-21T03:15:19.557Z,4117.3
2022-11-21T03:20:56.880Z,4115.6
2022-11-21T03:26:31.702Z,4117.5
2022-11-21T03:32:28.588Z,4118.7
2022-11-21T03:38:09.566Z,4119
2022-11-21T03:43:45.731Z,4116.5
2022-11-21T03:49:42.586Z,4112.8
2022-11-21T03:55:23.909Z,4115.3
2022-11-21T04:01:00.188Z,4113.6
2022-11-21T04:06:42.541Z,4116.8
2022-11-21T04:12:17.811Z,4112.3
2022-11-21T04:18:00.372Z,4116.1
2022-11-21T04:23:41.887Z,4110.8
2022-11-21T04:31:00.699Z,4111.6
2022-11-21T04:36:47.372Z,4111.1
2022-11-21T04:42:25.420Z,4110.8
2022-11-21T04:48:22.537Z,4111.6
2022-11-21T04:54:04.066Z,4115.5
2022-11-21T04:59:51.521Z,4108.6
2022-11-21T05:05:49.193Z,4111
2022-11-21T05:11:25.667Z,4108.1
2022-11-21T05:17:00.518Z,4109.9
2022-11-21T05:22:39.258Z,4113
2022-11-21T05:28:20.321Z,4111.3
2022-11-21T05:33:55.423Z,4107.1
2022-11-21T05:39:40.450Z,4106.4
2022-11-21T05:45:24.110Z,4108.8
2022-11-21T05:51:01.127Z,4107.4
2022-11-21T05:56:36.430Z,4108.3
2022-11-21T06:02:16.624Z,4104.8
2022-11-21T06:08:18.096Z,4108.9
2022-11-21T06:14:14.209Z,4106.4
2022-11-21T06:19:50.101Z,4105.1
2022-11-21T06:25:30.271Z,4106.9
2022-11-21T06:31:06.073Z,4104.1
2022-11-21T06:36:54.405Z,4104.3
2022-11-21T06:43:15.560Z,4101.9
2022-11-21T06:49:12.707Z,4101.4
2022-11-21T06:54:45.529Z,4102.9
2022-11-21T07:00:31.353Z,4104.1
2022-11-21T07:06:19.393Z,4103.2
2022-11-21T07:12:00.136Z,4102.6
2022-11-21T07:17:43.744Z,4100.4
2022-11-21T07:23:19.619Z,4104.3
2022-11-21T07:28:55.516Z,4101.6
2022-11-21T07:34:30.866Z,4099.4
2022-11-21T07:40:07.184Z,4105.3
2022-11-21T07:45:42.208Z,4103.7
2022-11-21T07:51:17.152Z,4105.1
2022-11-21T07:56:52.157Z,4106.4
2022-11-21T08:02:27.055Z,4104.4
2022-11-21T08:08:02.772Z,4106.1
2022-11-21T08:13:37.891Z,4102.7
2022-11-21T08:19:13.665Z,4105.6
2022-11-21T08:24:49.048Z,4104.4
2022-11-21T08:30:25.041Z,4116.6
2022-11-21T08:36:00.328Z,4116.6
2022-11-21T08:41:35.448Z,4115
2022-11-21T08:47:32.387Z,4108.4
2022-11-21T08:53:06.386Z,4102.7
2022-11-21T08:58:41.519Z,4103.9
2022-11-21T09:04:20.259Z,4102.6
2022-11-21T09:09:55.428Z,4106.8
2022-11-21T09:15:31.004Z,4106.3
2022-11-21T09:21:06.474Z,4105.1
2022-11-21T09:26:41.852Z,4110.3
2022-11-21T09:32:17.065Z,4103.1
2022-11-21T09:37:52.157Z,4107.9
2022-11-21T09:43:28.359Z,4117.1
2022-11-21T09:49:25.988Z,4115.3
2022-11-21T09:55:00.434Z,4116
2022-11-21T10:00:35.830Z,4116.6
2022-11-21T10:06:12.453Z,4120.5
2022-11-21T10:11:58.294Z,4113.8
2022-11-21T10:17:33.324Z,4112.6
2022-11-21T10:23:08.672Z,4107.9
2022-11-21T10:28:44.713Z,4120.7
2022-11-21T10:34:20.306Z,4119.5
2022-11-21T10:39:55.904Z,4123.9
2022-11-21T10:45:32.521Z,4127
2022-11-21T10:51:08.609Z,4114.6
2022-11-21T10:56:43.635Z,4119.2
2022-11-21T11:02:19.130Z,4129.5
2022-11-21T11:07:54.374Z,4128.5
2022-11-21T11:13:59.738Z,4130.2
2022-11-21T11:19:44.083Z,4127.2
2022-11-21T11:25:19.922Z,4127
2022-11-21T11:30:56.916Z,4115.8
2022-11-21T11:36:32.529Z,4116.8
2022-11-21T11:42:17.200Z,4111.3
2022-11-21T11:48:14.481Z,4110.5
2022-11-21T11:53:48.079Z,4112
2022-11-21T11:59:23.992Z,4112.3
2022-11-21T12:04:59.485Z,4109.6
2022-11-21T12:10:34.313Z,4109.9
2022-11-21T12:16:15.497Z,4111.5
2022-11-21T12:21:50.821Z,4109.3
2022-11-21T12:27:25.956Z,4108.9
2022-11-21T12:33:10.240Z,4108.8
2022-11-21T12:38:48.274Z,4109.8
2022-11-21T12:44:24.319Z,4105.3
2022-11-21T12:50:08.127Z,4107.4
2022-11-21T12:55:49.234Z,4104.4
2022-11-21T13:01:34.758Z,4107.9
2022-11-21T13:07:10.785Z,4104.6
2022-11-21T13:12:46.155Z,4105.4
2022-11-21T13:18:22.644Z,4102.9
2022-11-21T13:23:57.804Z,4103.7
2022-11-21T13:29:33.218Z,4104.4
2022-11-21T13:35:23.084Z,4100.2
2022-11-21T13:41:00.424Z,4101.4
2022-11-21T13:46:36.063Z,4105.6
2022-11-21T13:52:11.123Z,4101.1
2022-11-21T13:57:46.623Z,4099.4
2022-11-21T14:03:21.712Z,4099.6
2022-11-21T14:08:57.209Z,4099.1
2022-11-21T14:14:41.229Z,4100.7
2022-11-21T14:20:17.599Z,4099.9
2022-11-21T14:25:52.888Z,4096
2022-11-21T14:31:28.168Z,4097.9
2022-11-21T14:37:03.451Z,4097.9
2022-11-21T14:42:38.765Z,4097.7
2022-11-21T14:48:15.070Z,4097.2
2022-11-21T14:53:50.049Z,4097
2022-11-21T14:59:25.926Z,4098.9
2022-11-21T15:05:01.151Z,4095.7
2022-11-21T15:10:39.830Z,4096.5
2022-11-21T15:16:36.818Z,4093.9
2022-11-21T15:22:13.016Z,4092.7
2022-11-21T15:27:48.909Z,4096.2
2022-11-21T15:33:24.158Z,4096.5
2022-11-21T15:39:04.339Z,4093.7
2022-11-21T15:44:41.051Z,4092.9
2022-11-21T15:50:16.639Z,4096
2022-11-21T15:55:51.650Z,4093.2
2022-11-21T16:01:28.111Z,4092.4
2022-11-21T16:07:05.061Z,4095.7
2022-11-21T16:12:40.689Z,4092
2022-11-21T16:18:16.910Z,4088
2022-11-21T16:23:53.017Z,4088.8
2022-11-21T16:29:31.457Z,4090.9
2022-11-21T16:35:07.983Z,4089.3
2022-11-21T16:40:43.374Z,4088.5
2022-11-21T16:46:19.927Z,4089
2022-11-21T16:51:54.976Z,4087
2022-11-21T16:57:39.307Z,4086.7
2022-11-21T17:03:14.779Z,4086.8
2022-11-21T17:08:50.342Z,4088
2022-11-21T17:14:28.624Z,4085.7
2022-11-21T17:20:03.993Z,4087.5
2022-11-21T17:25:44.238Z,4089
2022-11-21T17:31:20.742Z,4087.3
2022-11-21T17:37:01.700Z,4088.3
2022-11-21T17:42:37.111Z,4087.8
2022-11-21T17:48:14.683Z,4086.7
2022-11-21T17:53:51.026Z,4089.2
2022-11-21T17:59:28.189Z,4085.3
2022-11-21T18:05:03.364Z,4087.3
2022-11-21T18:11:25.819Z,4089
2022-11-21T18:17:12.924Z,4084.5
2022-11-21T18:22:53.669Z,4084.2
2022-11-21T18:28:28.980Z,4082.3
2022-11-21T18:34:10.833Z,4088.5
2022-11-21T18:39:45.889Z,4081.8
2022-11-21T18:45:24.013Z,4085.7
2022-11-21T18:51:00.174Z,4083.5
2022-11-21T18:56:48.343Z,4085.8
2022-11-21T19:02:29.421Z,4084.3
2022-11-21T19:08:05.974Z,4083.6
2022-11-21T19:13:43.206Z,4083.6
2022-11-21T19:19:37.163Z,4082
2022-11-21T19:25:25.193Z,4082.6
2022-11-21T19:31:01.424Z,4085
2022-11-21T19:36:39.623Z,4080.5
2022-11-21T19:42:22.291Z,4084
2022-11-21T19:47:58.028Z,4083.5
2022-11-21T19:53:34.370Z,4078.8
2022-11-21T19:59:24.765Z,4085
2022-11-21T20:04:59.774Z,4078.1
2022-11-21T20:10:41.540Z,4079
2022-11-21T20:16:16.872Z,4080.3
2022-11-21T20:21:58.137Z,4083.5
2022-11-21T20:27:54.044Z,4080.5
2022-11-21T20:33:30.354Z,4078.3
2022-11-21T20:39:05.794Z,4079.8
2022-11-21T20:47:37.394Z,4076.3
2022-11-21T20:54:13.825Z,4074.9
2022-11-21T20:59:49.653Z,4077.1
2022-11-21T21:05:24.583Z,4075.9
2022-11-21T21:11:53.621Z,4073.6
2022-11-21T21:17:32.682Z,4076.4
2022-11-21T21:23:07.664Z,4073.6
2022-11-21T21:28:42.686Z,4075.4
2022-11-21T21:34:17.961Z,4073.6
2022-11-21T21:39:52.815Z,4076.6
2022-11-21T21:45:28.226Z,4071.4
2022-11-21T21:51:03.457Z,4072.9
2022-11-21T21:56:38.928Z,4072.4
2022-11-21T22:02:14.953Z,4073.9
2022-11-21T22:07:54.116Z,4070.1
2022-11-21T22:13:30.654Z,4071.6
2022-11-21T22:19:06.584Z,4068.2
2022-11-21T22:24:44.493Z,4069.7
2022-11-21T22:30:20.285Z,4069.2
2022-11-21T22:35:58.507Z,4069.2
2022-11-21T22:41:33.936Z,4070.9
2022-11-21T22:47:30.436Z,4068.6
2022-11-21T22:53:05.019Z,4069.1
2022-11-21T22:59:02.033Z,4068.9
2022-11-21T23:04:37.137Z,4068.2
2022-11-21T23:10:21.381Z,4071.6
2022-11-21T23:16:05.188Z,4068.7
2022-11-21T23:21:54.954Z,4067.4
2022-11-21T23:27:30.220Z,4066.7
2022-11-21T23:33:06.435Z,4066.7
2022-11-21T23:38:48.379Z,4068.6
2022-11-21T23:44:23.488Z,4067.1
2022-11-21T23:50:03.235Z,4065.1
2022-11-21T23:55:42.675Z,4065.1
